Glennallen, Alaska
Current Conditions -  °F | °C
As of 1:53 AM on Monday 22 Dec 2014 (Local Time) from PAGK Reporting Station
Overcast Overcast  
Wind Chill:   Ceiling: 1500
Heat Index:   Visibility: 10mi
Dew Point: -2°   Wind: 3mph
Humidity: 80%   Direction: 330°NNW
Pressure: 29.67"   Gusts: NA
Location:  62.11°N, 145.55°W
Report Text: PAGK 221053Z AUTO 33003KT 10SM OVC015 M16/M19 A2967 RMK AO2 SLP103 T11611189 TSNO $
Loading
Personal Weather Stations






























Interactive Weather Map New forecast layout! Learn more

10-Day Weather Forecast

Advertisements
Track Severe Weather on mobile